Time;durP1;ratioP1;P1;durP2;ratioP2;P2;SDS_P1;SDS_P2;PMS_P1;PMS_P2;Temp;Humidity;BMP_temperature;BMP_pressure;BME280_temperature;BME280_humidity;BME280_pressure;Samples;Min_cycle;Max_cycle;Signal;HPM_P1;HPM_P2
2023/03/28 00:01:33;;;;;;;4.43;1.50;;;;;;;-0.49;90.98;102609.19;4990455;28;20041;-81
2023/03/28 00:03:58;;;;;;;4.53;2.08;;;;;;;-0.50;90.84;102603.84;4985607;28;20504;-80
2023/03/28 00:06:25;;;;;;;7.63;2.00;;;;;;;-0.52;90.59;102607.38;4993113;28;20491;-79
2023/03/28 00:08:50;;;;;;;8.15;2.13;;;;;;;-0.58;91.36;102607.38;5010084;28;20058;-80
2023/03/28 00:11:21;;;;;;;3.67;1.70;;;;;;;-0.63;91.17;102611.84;4977146;28;20100;-80
2023/03/28 00:14:02;;;;;;;3.95;1.55;;;;;;;-0.63;91.44;102610.94;4991297;28;20711;-79
2023/03/28 00:16:34;;;;;;;3.72;2.03;;;;;;;-0.68;91.95;102604.72;4989808;28;20030;-80
2023/03/28 00:19:06;;;;;;;3.13;1.52;;;;;;;-0.71;91.63;102613.59;5001559;28;20042;-80
2023/03/28 00:21:34;;;;;;;7.75;1.85;;;;;;;-0.71;91.89;102612.69;4993453;28;20092;-80
2023/03/28 00:24:02;;;;;;;4.60;1.77;;;;;;;-0.78;91.76;102606.47;4974170;28;20105;-80
2023/03/28 00:26:31;;;;;;;4.50;1.75;;;;;;;-0.75;92.39;102600.22;4991241;28;20066;-80
2023/03/28 00:28:56;;;;;;;6.88;2.33;;;;;;;-0.79;91.69;102599.34;4989588;28;20050;-80
2023/03/28 00:31:24;;;;;;;5.40;2.33;;;;;;;-0.78;91.74;102601.13;4993925;28;20026;-79
2023/03/28 00:33:50;;;;;;;3.50;1.80;;;;;;;-0.78;92.23;102603.78;4999124;28;20533;-80
2023/03/28 00:36:21;;;;;;;3.80;1.75;;;;;;;-0.80;91.97;102605.56;4990303;28;20058;-79
2023/03/28 00:38:52;;;;;;;6.53;2.17;;;;;;;-0.82;92.35;102602.88;4973725;28;20125;-80
2023/03/28 00:41:20;;;;;;;9.65;2.10;;;;;;;-0.84;92.48;102602.00;4990002;28;20088;-80
2023/03/28 00:43:54;;;;;;;5.80;1.90;;;;;;;-0.87;92.40;102599.31;4989674;28;20038;-79
2023/03/28 00:46:25;;;;;;;10.32;2.15;;;;;;;-0.88;93.16;102599.31;4989516;28;20086;-79
2023/03/28 00:49:05;;;;;;;7.13;2.08;;;;;;;-0.90;92.38;102603.75;4990444;28;20184;-80
2023/03/28 00:51:38;;;;;;;3.85;1.95;;;;;;;-0.94;92.46;102600.16;4989844;28;20054;-79
2023/03/28 00:54:07;;;;;;;8.20;2.05;;;;;;;-0.93;92.60;102606.41;4973074;28;20035;-79
2023/03/28 00:56:36;;;;;;;4.43;1.85;;;;;;;-0.98;92.37;102605.50;5004681;28;20029;-80
2023/03/28 00:59:06;;;;;;;4.03;1.73;;;;;;;-0.99;93.01;102609.94;5000394;28;20518;-80
2023/03/28 01:01:32;;;;;;;3.78;2.05;;;;;;;-1.02;93.09;102606.41;4994814;28;20030;-80
2023/03/28 01:04:01;;;;;;;6.93;1.95;;;;;;;-1.06;93.08;102608.16;4991341;28;20030;-80
2023/03/28 01:06:34;;;;;;;8.20;2.20;;;;;;;-1.09;93.56;102601.00;5008527;28;20068;-80
2023/03/28 01:09:05;;;;;;;3.13;1.98;;;;;;;-1.07;93.08;102606.38;5009549;28;20100;-79
2023/03/28 01:11:35;;;;;;;4.22;2.40;;;;;;;-1.09;93.06;102606.34;4990994;28;20486;-80
2023/03/28 01:14:03;;;;;;;4.22;2.50;;;;;;;-1.11;93.19;102604.56;4992113;28;20026;-80
2023/03/28 01:16:29;;;;;;;5.97;2.38;;;;;;;-1.12;93.19;102606.34;5002418;28;20030;-80
2023/03/28 01:19:00;;;;;;;9.38;2.15;;;;;;;-1.14;93.17;102593.88;4989335;28;20034;-80
2023/03/28 01:22:11;;;;;;;3.70;2.42;;;;;;;-1.13;93.17;102603.66;4988867;28;20034;-80
2023/03/28 01:25:13;;;;;;;5.13;2.10;;;;;;;-1.17;93.31;102600.06;4997962;28;20065;-80
2023/03/28 01:28:15;;;;;;;4.95;2.10;;;;;;;-1.21;93.15;102592.03;4992569;28;20117;-80
2023/03/28 01:31:17;;;;;;;5.78;2.50;;;;;;;-1.25;93.51;102583.16;4973449;28;20042;-80
2023/03/28 01:34:23;;;;;;;5.75;2.30;;;;;;;-1.25;93.81;102593.84;4992894;28;20120;-80
2023/03/28 01:37:02;;;;;;;5.18;2.58;;;;;;;-1.25;93.89;102598.28;5008169;28;20053;-80
2023/03/28 01:39:59;;;;;;;4.35;2.38;;;;;;;-1.24;94.43;102595.63;5001581;28;20474;-80
2023/03/28 01:43:13;;;;;;;9.88;2.65;;;;;;;-1.22;93.67;102593.81;5007959;28;20030;-80
2023/03/28 01:45:50;;;;;;;9.93;2.83;;;;;;;-1.24;93.96;102582.25;5010651;28;20030;-80
2023/03/28 01:48:47;;;;;;;7.38;2.95;;;;;;;-1.25;94.27;102590.28;4997240;28;20033;-80
2023/03/28 01:51:32;;;;;;;5.82;2.67;;;;;;;-1.29;93.96;102578.69;5002451;28;20060;-80
2023/03/28 01:54:34;;;;;;;6.32;2.55;;;;;;;-1.27;93.77;102584.00;4994404;28;20038;-80
2023/03/28 01:57:09;;;;;;;4.47;1.95;;;;;;;-1.30;93.52;102584.91;4968976;28;20038;-80
2023/03/28 01:59:46;;;;;;;5.80;2.58;;;;;;;-1.34;93.96;102577.78;4967151;28;20057;-80
2023/03/28 02:02:48;;;;;;;4.47;2.30;;;;;;;-1.37;93.75;102580.41;4988993;28;20049;-80
2023/03/28 02:05:28;;;;;;;5.35;3.08;;;;;;;-1.42;94.01;102580.41;4955081;28;20509;-80
2023/03/28 02:07:54;;;;;;;8.35;2.85;;;;;;;-1.44;94.51;102578.63;4969740;28;20543;-80
2023/03/28 02:10:35;;;;;;;7.07;2.97;;;;;;;-1.43;95.09;102578.63;4973080;28;20034;-80
2023/03/28 02:13:19;;;;;;;7.85;3.22;;;;;;;-1.47;95.08;102582.16;4993085;28;20038;-80
2023/03/28 02:15:56;;;;;;;7.30;3.00;;;;;;;-1.44;94.98;102589.28;5007059;28;20350;-80
2023/03/28 02:18:48;;;;;;;9.50;3.15;;;;;;;-1.44;95.20;102583.97;4989390;28;20084;-80
2023/03/28 02:21:50;;;;;;;6.63;2.50;;;;;;;-1.44;95.63;102582.19;4988619;28;20474;-81
2023/03/28 02:24:38;;;;;;;9.43;2.65;;;;;;;-1.47;94.84;102573.25;4979633;28;20061;-80
2023/03/28 02:27:10;;;;;;;6.03;2.50;;;;;;;-1.46;95.13;102581.25;4987980;28;20550;-80
2023/03/28 02:29:46;;;;;;;9.85;3.03;;;;;;;-1.47;95.84;102582.16;4974190;28;20041;-80
2023/03/28 02:32:20;;;;;;;11.43;2.80;;;;;;;-1.45;96.00;102582.16;4991547;28;20045;-80
2023/03/28 02:34:48;;;;;;;9.73;3.55;;;;;;;-1.40;95.48;102575.06;4990849;28;20050;-80
2023/03/28 02:38:02;;;;;;;8.85;3.60;;;;;;;-1.41;95.61;102570.59;5007884;28;20026;-80
2023/03/28 02:40:42;;;;;;;12.02;2.50;;;;;;;-1.34;95.50;102575.09;4953232;28;20066;-80
2023/03/28 02:43:27;;;;;;;6.95;3.17;;;;;;;-1.37;95.76;102567.97;4992060;28;20324;-80
2023/03/28 02:46:07;;;;;;;9.80;3.15;;;;;;;-1.38;95.62;102573.31;4990717;28;20041;-80
2023/03/28 02:48:50;;;;;;;8.02;3.47;;;;;;;-1.39;95.62;102574.19;4994658;28;20018;-80
2023/03/28 02:51:33;;;;;;;7.50;3.70;;;;;;;-1.40;95.30;102569.72;4991626;28;20096;-80
2023/03/28 02:54:34;;;;;;;8.93;2.75;;;;;;;-1.40;95.57;102572.38;4972293;28;20131;-80
2023/03/28 02:57:40;;;;;;;10.25;3.22;;;;;;;-1.45;94.87;102567.03;4985702;28;20093;-80
2023/03/28 03:00:16;;;;;;;6.22;2.60;;;;;;;-1.47;94.95;102566.13;4971820;28;20042;-80
2023/03/28 03:02:43;;;;;;;5.03;3.00;;;;;;;-1.48;95.03;102571.47;4970931;28;20129;-80
2023/03/28 03:05:10;;;;;;;10.50;3.05;;;;;;;-1.55;95.37;102560.75;4992491;28;20117;-80
2023/03/28 03:07:36;;;;;;;6.80;2.90;;;;;;;-1.57;95.13;102558.97;4987602;28;20085;-81
2023/03/28 03:10:07;;;;;;;9.07;3.17;;;;;;;-1.57;95.22;102567.88;4970883;28;20026;-80
2023/03/28 03:12:35;;;;;;;8.30;3.33;;;;;;;-1.63;94.90;102561.63;4987218;28;20029;-80
2023/03/28 03:15:02;;;;;;;4.15;2.85;;;;;;;-1.62;95.37;102564.28;4970989;28;20026;-80
2023/03/28 03:17:48;;;;;;;5.32;2.63;;;;;;;-1.63;95.24;102565.19;4980553;28;20104;-80
2023/03/28 03:20:17;;;;;;;8.27;3.38;;;;;;;-1.68;95.47;102561.59;4970785;28;20430;-80
2023/03/28 03:22:43;;;;;;;4.25;2.42;;;;;;;-1.67;95.46;102558.03;4970914;28;20022;-81
2023/03/28 03:25:12;;;;;;;8.27;2.92;;;;;;;-1.67;95.99;102563.38;4970571;28;20060;-80
2023/03/28 03:27:52;;;;;;;4.63;2.75;;;;;;;-1.65;96.00;102569.59;4972763;28;20031;-80
2023/03/28 03:30:18;;;;;;;13.32;3.38;;;;;;;-1.67;95.86;102562.47;4987044;28;20445;-80
2023/03/28 03:33:16;;;;;;;7.47;3.50;;;;;;;-1.68;95.74;102564.25;4983167;28;20401;-80
2023/03/28 03:35:44;;;;;;;13.73;2.78;;;;;;;-1.67;95.96;102566.03;4974162;28;20043;-80
2023/03/28 03:38:10;;;;;;;4.50;3.05;;;;;;;-1.67;96.16;102562.47;4970704;28;20050;-80
2023/03/28 03:40:35;;;;;;;5.22;2.92;;;;;;;-1.65;95.80;102568.72;4992968;28;20061;-80
2023/03/28 03:43:01;;;;;;;6.65;3.22;;;;;;;-1.67;95.53;102570.50;4971887;28;20106;-80
2023/03/28 03:45:27;;;;;;;8.23;3.47;;;;;;;-1.71;95.76;102566.00;4970776;28;20030;-80
2023/03/28 03:47:53;;;;;;;5.88;3.28;;;;;;;-1.72;96.04;102564.22;4977037;28;20517;-80
2023/03/28 03:50:18;;;;;;;6.22;3.17;;;;;;;-1.73;96.20;102570.44;4986505;28;20065;-80
2023/03/28 03:52:44;;;;;;;9.23;3.53;;;;;;;-1.76;96.42;102567.75;4971170;28;20034;-80
2023/03/28 03:55:10;;;;;;;7.05;3.13;;;;;;;-1.76;96.52;102565.09;4969838;28;20058;-80
2023/03/28 03:57:37;;;;;;;7.20;3.28;;;;;;;-1.81;96.56;102565.06;4970797;28;20402;-80
2023/03/28 04:00:10;;;;;;;9.55;3.40;;;;;;;-1.82;96.17;102569.50;4967677;28;20030;-80
2023/03/28 04:02:45;;;;;;;10.13;3.35;;;;;;;-1.79;96.40;102563.28;4988822;28;20506;-80
2023/03/28 04:05:11;;;;;;;7.47;3.90;;;;;;;-1.82;96.76;102558.84;4999385;28;20410;-80
2023/03/28 04:08:00;;;;;;;10.88;3.83;;;;;;;-1.81;96.60;102559.72;5007972;28;20057;-79
2023/03/28 04:10:29;;;;;;;10.40;4.50;;;;;;;-1.80;96.17;102561.50;5007634;28;20065;-80
2023/03/28 04:12:55;;;;;;;12.25;3.78;;;;;;;-1.77;96.48;102566.88;4994848;28;20057;-79
2023/03/28 04:15:21;;;;;;;9.93;3.90;;;;;;;-1.80;96.45;102565.06;5011039;28;20516;-80
2023/03/28 04:18:06;;;;;;;8.23;3.80;;;;;;;-1.80;96.40;102558.84;4993221;28;20025;-80
2023/03/28 04:20:39;;;;;;;15.90;4.10;;;;;;;-1.80;96.93;102562.41;5005056;28;20040;-79
2023/03/28 04:23:08;;;;;;;7.20;3.60;;;;;;;-1.77;96.81;102556.19;5011185;28;20052;-79
2023/03/28 04:25:34;;;;;;;14.18;5.32;;;;;;;-1.75;96.95;102559.75;4982204;28;20487;-79
2023/03/28 04:28:15;;;;;;;13.63;4.97;;;;;;;-1.72;96.98;102558.91;4957615;28;20037;-79
2023/03/28 04:30:57;;;;;;;9.13;4.22;;;;;;;-1.74;96.75;102556.19;4972224;28;20038;-79
2023/03/28 04:33:52;;;;;;;7.93;4.38;;;;;;;-1.75;96.67;102559.75;4990654;28;20069;-79
2023/03/28 04:36:20;;;;;;;8.82;5.05;;;;;;;-1.78;96.56;102553.50;4994530;28;20033;-79
2023/03/28 04:38:57;;;;;;;11.30;4.40;;;;;;;-1.77;97.46;102549.94;5009551;28;20033;-80
2023/03/28 04:41:46;;;;;;;9.80;5.18;;;;;;;-1.76;97.00;102555.31;4990697;28;20531;-79
2023/03/28 04:44:22;;;;;;;16.27;4.55;;;;;;;-1.80;97.37;102550.84;4957777;28;20395;-79
2023/03/28 04:46:57;;;;;;;8.13;5.45;;;;;;;-1.78;96.97;102545.50;4977547;28;20490;-79
2023/03/28 04:49:23;;;;;;;9.40;4.60;;;;;;;-1.77;96.67;102566.88;4991318;28;20046;-79
2023/03/28 04:51:51;;;;;;;17.67;5.72;;;;;;;-1.79;96.93;102565.97;5007129;28;20042;-79
2023/03/28 04:54:18;;;;;;;12.93;4.95;;;;;;;-1.81;97.21;102562.41;5010035;28;20397;-79
2023/03/28 04:56:46;;;;;;;17.20;4.88;;;;;;;-1.84;96.95;102557.03;4995578;28;20037;-79
2023/03/28 04:59:16;;;;;;;8.80;4.60;;;;;;;-1.86;96.98;102550.81;4992990;28;20390;-79
2023/03/28 05:01:47;;;;;;;9.50;5.50;;;;;;;-1.85;96.95;102561.47;4981914;28;20077;-79
2023/03/28 05:04:31;;;;;;;13.18;4.93;;;;;;;-1.88;97.01;102564.13;4993902;28;20046;-79
2023/03/28 05:07:02;;;;;;;9.88;4.97;;;;;;;-1.90;nan;102565.00;4990247;28;20054;-78
2023/03/28 05:09:28;;;;;;;15.18;5.38;;;;;;;-1.92;97.28;102572.09;4991877;28;20053;-79
2023/03/28 05:11:54;;;;;;;8.65;4.95;;;;;;;-1.94;96.74;102577.41;5009763;28;20046;-79
2023/03/28 05:14:19;;;;;;;12.18;5.78;;;;;;;-1.95;96.86;102580.09;4993990;28;20846;-79
2023/03/28 05:16:48;;;;;;;11.35;5.45;;;;;;;-1.99;96.54;102576.50;4991630;28;20053;-79
2023/03/28 05:19:34;;;;;;;12.82;6.00;;;;;;;-1.96;97.35;102583.59;4979068;28;20030;-78
2023/03/28 05:22:04;;;;;;;12.57;5.30;;;;;;;-1.97;97.26;102579.16;4991105;28;20030;-79
2023/03/28 05:24:30;;;;;;;14.02;6.47;;;;;;;-1.97;97.65;102574.72;4992320;28;20509;-79
2023/03/28 05:26:56;;;;;;;15.45;6.45;;;;;;;-1.97;97.87;102568.50;4990540;28;20033;-79
2023/03/28 05:29:22;;;;;;;13.90;6.55;;;;;;;-1.95;97.75;102583.63;4992204;28;20046;-79
2023/03/28 05:31:48;;;;;;;14.75;7.22;;;;;;;-1.96;97.27;102584.53;4991656;28;20116;-79
2023/03/28 05:34:23;;;;;;;10.30;6.03;;;;;;;-1.94;97.41;102581.88;4990108;28;20031;-79
2023/03/28 05:36:48;;;;;;;8.70;5.47;;;;;;;-1.95;97.73;102580.09;4991169;28;20041;-78
2023/03/28 05:39:25;;;;;;;14.63;6.55;;;;;;;-1.96;97.42;102580.94;4991018;28;20084;-79
2023/03/28 05:41:56;;;;;;;17.92;6.95;;;;;;;-1.91;97.55;102584.53;4973726;28;20137;-78
2023/03/28 05:44:22;;;;;;;11.25;6.70;;;;;;;-1.82;97.66;102589.94;4991466;28;20525;-79
2023/03/28 05:47:07;;;;;;;13.73;6.75;;;;;;;-1.61;97.00;102595.41;5009854;28;20113;-79
2023/03/28 05:49:32;;;;;;;13.65;7.07;;;;;;;-1.37;96.99;102581.31;5004538;28;20125;-78
2023/03/28 05:51:58;;;;;;;16.83;8.02;;;;;;;-0.92;96.18;102594.84;4982910;28;20054;-79
2023/03/28 05:54:23;;;;;;;15.50;6.38;;;;;;;-0.61;94.78;102590.44;5006372;28;20088;-79
2023/03/28 05:56:49;;;;;;;10.13;6.55;;;;;;;-0.13;94.11;102586.06;4988321;28;20064;-79
2023/03/28 05:59:17;;;;;;;14.88;7.43;;;;;;;0.36;92.56;102591.34;4989487;28;20819;-79
2023/03/28 06:01:45;;;;;;;15.43;6.65;;;;;;;0.59;90.49;102578.78;4994869;28;20065;-79
2023/03/28 06:04:10;;;;;;;12.40;6.90;;;;;;;0.47;89.92;102577.03;4966928;28;20041;-79
2023/03/28 06:06:36;;;;;;;13.95;7.38;;;;;;;0.31;90.83;102577.97;4972674;28;20454;-79
2023/03/28 06:09:04;;;;;;;18.17;8.48;;;;;;;0.15;91.40;102579.78;4990106;28;20050;-79
2023/03/28 06:11:41;;;;;;;14.90;6.97;;;;;;;0.01;91.66;102573.56;4970544;28;20046;-78
2023/03/28 06:14:08;;;;;;;13.25;8.07;;;;;;;-0.09;91.97;102566.44;4969792;28;20380;-79
2023/03/28 06:16:36;;;;;;;17.05;7.68;;;;;;;-0.01;92.84;102578.91;4998740;28;20433;-79
2023/03/28 06:19:01;;;;;;;24.20;7.70;;;;;;;0.06;92.12;102570.88;5007115;28;20029;-79
2023/03/28 06:21:27;;;;;;;16.67;8.68;;;;;;;0.20;92.62;102571.75;4991549;28;20157;-79
2023/03/28 06:23:53;;;;;;;26.17;8.48;;;;;;;0.61;92.60;102570.75;4972851;28;20751;-79
2023/03/28 06:26:24;;;;;;;11.10;8.27;;;;;;;0.95;89.70;102572.38;4979547;28;20054;-79
2023/03/28 06:28:50;;;;;;;14.40;8.52;;;;;;;1.16;88.86;102574.03;4970038;28;20034;-79
2023/03/28 06:31:20;;;;;;;19.02;8.88;;;;;;;1.72;88.91;102585.28;4986735;28;20030;-79
2023/03/28 06:33:46;;;;;;;16.15;8.40;;;;;;;2.01;87.03;102582.41;4994124;28;20029;-79
2023/03/28 06:36:13;;;;;;;16.20;8.05;;;;;;;1.94;85.75;102586.03;5007183;28;20052;-79
2023/03/28 06:38:40;;;;;;;17.55;9.40;;;;;;;1.91;86.21;102592.31;5006977;28;20061;-79
2023/03/28 06:41:06;;;;;;;11.38;7.38;;;;;;;1.77;85.93;102584.38;5005159;28;20022;-79
2023/03/28 06:43:34;;;;;;;20.17;8.98;;;;;;;1.70;86.51;102584.44;4991803;28;20338;-82
2023/03/28 06:46:08;;;;;;;14.65;8.32;;;;;;;1.67;86.79;102593.38;5005035;28;20053;-82
2023/03/28 06:48:36;;;;;;;16.98;8.70;;;;;;;1.70;87.56;102593.38;4987307;28;20041;-82
2023/03/28 06:51:20;;;;;;;14.38;8.40;;;;;;;1.71;87.08;102589.78;4988582;28;20068;-82
2023/03/28 06:53:46;;;;;;;13.98;7.25;;;;;;;1.74;87.02;102587.09;4987486;28;20128;-82
2023/03/28 06:56:12;;;;;;;17.65;7.30;;;;;;;2.24;86.25;102601.84;4983150;28;20030;-82
2023/03/28 06:58:38;;;;;;;13.18;7.00;;;;;;;2.65;84.10;102599.63;4980869;28;20521;-82
2023/03/28 07:01:07;;;;;;;10.93;7.40;;;;;;;2.81;83.57;102590.50;4954370;28;20045;-82
2023/03/28 07:03:58;;;;;;;13.48;7.00;;;;;;;2.84;83.18;102594.91;4974292;28;20061;-82
2023/03/28 07:06:27;;;;;;;13.85;7.60;;;;;;;2.95;83.20;102601.06;4986853;28;20109;-82
2023/03/28 07:08:55;;;;;;;18.20;7.82;;;;;;;3.22;82.55;102602.53;4986893;28;20034;-82
2023/03/28 07:11:29;;;;;;;14.45;7.22;;;;;;;4.00;81.27;102591.41;4985944;28;20058;-82
2023/03/28 07:13:55;;;;;;;8.93;6.57;;;;;;;4.68;78.45;102598.28;4987699;28;20442;-82
2023/03/28 07:16:20;;;;;;;10.02;6.55;;;;;;;5.24;77.40;102593.50;4970479;28;20132;-82
2023/03/28 07:18:47;;;;;;;12.98;6.90;;;;;;;5.95;74.08;102598.16;4987261;28;20026;-82
2023/03/28 07:21:18;;;;;;;12.57;6.55;;;;;;;6.33;71.75;102591.75;4971155;28;20081;-82
2023/03/28 07:23:44;;;;;;;15.82;6.47;;;;;;;6.31;72.14;102599.03;4986622;28;20054;-82
2023/03/28 07:26:13;;;;;;;7.22;5.82;;;;;;;6.22;71.88;102600.16;4986336;28;20022;-82
2023/03/28 07:28:38;;;;;;;8.65;5.75;;;;;;;6.29;72.00;102601.75;4985944;28;20042;-82
2023/03/28 07:31:04;;;;;;;8.80;6.38;;;;;;;6.61;71.21;102605.41;4994305;28;20128;-82
2023/03/28 07:33:34;;;;;;;13.05;6.38;;;;;;;6.70;70.42;102607.84;4971392;28;20031;-82
2023/03/28 07:36:07;;;;;;;10.48;6.38;;;;;;;6.63;70.46;102603.56;4987444;28;20034;-82
2023/03/28 07:38:34;;;;;;;11.88;5.10;;;;;;;6.67;70.43;102601.66;4987752;28;20115;-83
2023/03/28 07:41:00;;;;;;;12.05;5.97;;;;;;;7.09;69.56;102607.66;4986983;28;20038;-82
2023/03/28 07:43:25;;;;;;;12.23;5.78;;;;;;;7.38;68.78;102599.53;4986022;28;20057;-83
2023/03/28 07:45:52;;;;;;;14.48;6.13;;;;;;;7.36;69.87;102601.38;4974012;28;20129;-83
2023/03/28 07:48:18;;;;;;;9.50;5.30;;;;;;;7.48;69.61;102607.38;4993546;28;20048;-83
2023/03/28 07:50:43;;;;;;;11.52;5.65;;;;;;;7.56;69.97;102606.22;4994942;28;20046;-83
2023/03/28 07:53:12;;;;;;;16.52;4.97;;;;;;;7.60;71.11;102604.25;4983272;28;20034;-84
2023/03/28 07:55:39;;;;;;;9.82;5.20;;;;;;;7.64;70.15;102595.09;4991098;28;20391;-84
2023/03/28 07:58:06;;;;;;;7.88;4.22;;;;;;;7.50;69.14;102592.84;4991155;28;20026;-84
2023/03/28 08:00:35;;;;;;;8.85;4.97;;;;;;;7.37;70.77;102599.59;4971928;28;20041;-85
2023/03/28 08:03:19;;;;;;;11.80;5.53;;;;;;;7.30;70.70;102604.28;4990255;28;20037;-85
2023/03/28 08:05:50;;;;;;;12.75;5.07;;;;;;;7.22;70.47;102608.16;4987272;28;20039;-85
2023/03/28 08:08:20;;;;;;;11.13;4.95;;;;;;;7.06;72.20;102608.63;4990799;28;20517;-85
2023/03/28 08:10:54;;;;;;;9.38;4.72;;;;;;;7.06;72.81;102605.03;4994512;28;20553;-85
2023/03/28 08:13:19;;;;;;;10.85;5.07;;;;;;;7.15;73.62;102602.94;5010194;28;20038;-85
2023/03/28 08:15:49;;;;;;;12.13;5.20;;;;;;;7.23;72.84;102601.81;4998707;28;20125;-85
2023/03/28 08:18:19;;;;;;;11.73;4.95;;;;;;;7.16;71.57;102609.25;4983669;28;20034;-85
2023/03/28 08:20:49;;;;;;;7.57;4.00;;;;;;;7.07;72.86;102604.09;4994243;28;20489;-85
2023/03/28 08:23:15;;;;;;;11.18;5.30;;;;;;;6.98;70.29;102609.78;4975273;28;20165;-85
2023/03/28 08:26:14;;;;;;;8.40;4.18;;;;;;;6.84;73.22;102604.75;5002870;28;20445;-85
2023/03/28 08:28:44;;;;;;;7.25;3.72;;;;;;;6.96;72.95;102596.31;5010137;28;20061;-85
2023/03/28 08:31:13;;;;;;;11.95;4.10;;;;;;;7.07;73.77;102596.88;4998703;28;20030;-85
2023/03/28 08:33:43;;;;;;;10.23;3.42;;;;;;;7.10;69.79;102604.91;4987621;28;20084;-86
2023/03/28 08:36:13;;;;;;;12.10;5.15;;;;;;;7.18;70.89;102603.78;4990257;28;20027;-86
2023/03/28 08:38:41;;;;;;;9.18;4.18;;;;;;;7.31;73.10;102594.34;4990831;28;20141;-85
2023/03/28 08:41:22;;;;;;;13.00;3.78;;;;;;;7.40;71.92;102591.34;5000164;28;20508;-85
2023/03/28 08:44:41;;;;;;;10.35;3.85;;;;;;;7.65;70.91;102595.09;5010323;28;20064;-85
2023/03/28 08:47:17;;;;;;;8.27;3.25;;;;;;;7.77;70.96;102593.78;4982019;28;20082;-85
2023/03/28 08:50:12;;;;;;;11.18;3.40;;;;;;;7.75;69.28;102587.53;5005531;28;20099;-86
2023/03/28 08:52:39;;;;;;;8.60;3.60;;;;;;;7.79;68.15;102589.22;5009852;28;20564;-85
2023/03/28 08:55:30;;;;;;;4.72;2.38;;;;;;;7.85;68.74;102588.13;5006082;28;20088;-85
2023/03/28 08:57:57;;;;;;;9.63;4.15;;;;;;;7.84;67.23;102587.25;4990131;28;20026;-85
2023/03/28 09:00:35;;;;;;;4.25;2.30;;;;;;;7.81;68.59;102589.16;4991632;28;20034;-85
2023/03/28 09:03:08;;;;;;;7.30;3.20;;;;;;;7.74;66.48;102580.34;5007072;28;20434;-85
2023/03/28 09:05:39;;;;;;;6.93;3.10;;;;;;;7.70;66.75;102580.50;5006656;28;20046;-86
2023/03/28 09:08:45;;;;;;;6.15;2.08;;;;;;;7.65;64.80;102578.81;4974949;28;20042;-85
2023/03/28 09:11:26;;;;;;;11.30;3.40;;;;;;;7.68;65.58;102578.72;4973656;28;20843;-85
2023/03/28 09:14:01;;;;;;;3.33;2.47;;;;;;;7.69;64.70;102576.88;4991184;28;20124;-85
2023/03/28 09:16:55;;;;;;;9.07;2.72;;;;;;;7.65;64.82;102583.38;4990422;28;20046;-85
2023/03/28 09:19:30;;;;;;;5.35;2.90;;;;;;;7.72;65.06;102575.91;4990045;28;20057;-85
2023/03/28 09:22:21;;;;;;;10.02;2.63;;;;;;;7.79;65.63;102569.38;4989464;28;20037;-84
2023/03/28 09:25:01;;;;;;;5.78;2.45;;;;;;;7.85;65.63;102574.56;4956158;28;20035;-85
2023/03/28 09:27:45;;;;;;;6.03;2.70;;;;;;;7.82;64.02;102577.38;4974417;28;20045;-85
2023/03/28 09:30:25;;;;;;;6.25;2.78;;;;;;;7.76;64.45;102573.06;4989796;28;20550;-85
2023/03/28 09:32:57;;;;;;;5.10;2.47;;;;;;;7.64;63.76;102568.91;5004972;28;20120;-84
2023/03/28 09:35:24;;;;;;;6.03;2.53;;;;;;;7.63;64.34;102561.72;5008628;28;20042;-85
2023/03/28 09:37:57;;;;;;;6.00;2.60;;;;;;;7.64;63.96;102563.50;4993218;28;20065;-85
2023/03/28 09:40:28;;;;;;;9.80;2.88;;;;;;;7.78;67.12;102559.44;5007926;28;20076;-85
2023/03/28 09:43:13;;;;;;;6.90;2.33;;;;;;;7.98;63.05;102554.25;5009356;28;20049;-85
2023/03/28 09:46:01;;;;;;;9.43;2.75;;;;;;;8.01;62.65;102559.56;5009305;28;20462;-85
2023/03/28 09:48:53;;;;;;;5.97;3.17;;;;;;;8.01;62.30;102548.72;4984898;28;20080;-85
2023/03/28 09:51:21;;;;;;;5.72;2.50;;;;;;;8.07;62.61;102555.78;5008370;28;20054;-85
2023/03/28 09:53:47;;;;;;;6.20;1.90;;;;;;;8.10;60.83;102547.50;5002819;28;20030;-85
2023/03/28 09:56:37;;;;;;;7.97;1.92;;;;;;;8.05;61.81;102546.78;4987237;28;20117;-85
2023/03/28 09:59:29;;;;;;;8.30;2.15;;;;;;;7.95;62.09;102537.22;4986822;28;20062;-85
2023/03/28 10:02:02;;;;;;;5.90;1.88;;;;;;;7.93;57.57;102537.28;4975612;28;20045;-85
2023/03/28 10:04:37;;;;;;;3.47;1.52;;;;;;;7.96;62.03;102533.56;4963366;28;20502;-85
2023/03/28 10:07:28;;;;;;;6.63;2.22;;;;;;;8.01;61.38;102523.44;4968788;28;20039;-85
2023/03/28 10:10:15;;;;;;;5.03;1.98;;;;;;;8.21;64.83;102520.00;4975178;28;20398;-85
2023/03/28 10:12:42;;;;;;;5.43;1.70;;;;;;;8.38;62.62;102507.66;4988591;28;20112;-85
2023/03/28 10:15:31;;;;;;;6.63;1.92;;;;;;;8.50;61.52;102508.16;4988887;28;20501;-85
2023/03/28 10:18:26;;;;;;;7.43;1.80;;;;;;;8.41;57.97;102499.41;4990208;28;20564;-85
2023/03/28 10:21:24;;;;;;;5.45;1.67;;;;;;;8.56;59.35;102495.25;4953756;28;20105;-85
2023/03/28 10:24:16;;;;;;;6.97;2.05;;;;;;;8.58;54.34;102511.44;4975318;28;20125;-85
2023/03/28 10:26:47;;;;;;;3.58;1.52;;;;;;;8.66;56.66;102502.09;4987168;28;20084;-85
2023/03/28 10:29:14;;;;;;;4.55;2.45;;;;;;;8.83;59.08;102498.75;4973023;28;20042;-85
2023/03/28 10:31:47;;;;;;;8.88;1.80;;;;;;;8.81;56.43;102500.66;4972231;28;20022;-85
2023/03/28 10:34:33;;;;;;;4.60;1.38;;;;;;;8.84;58.46;102491.47;4988908;28;20037;-84
2023/03/28 10:37:28;;;;;;;12.85;2.85;;;;;;;8.96;59.79;102488.31;4989086;28;20089;-85
2023/03/28 10:40:17;;;;;;;11.52;1.92;;;;;;;9.33;60.32;102482.28;4987771;28;20030;-85
2023/03/28 10:42:59;;;;;;;5.90;1.80;;;;;;;9.44;54.70;102477.28;4988671;28;20546;-85
2023/03/28 10:45:44;;;;;;;5.93;1.55;;;;;;;9.62;57.25;102472.91;4988510;28;20030;-85
2023/03/28 10:48:15;;;;;;;3.65;1.90;;;;;;;9.82;54.51;102465.72;4988345;28;20398;-85
2023/03/28 10:50:48;;;;;;;4.53;1.50;;;;;;;9.93;53.72;102468.84;4988012;28;20050;-85
2023/03/28 10:53:28;;;;;;;7.32;1.60;;;;;;;10.13;55.02;102468.00;4972749;28;20133;-84
2023/03/28 10:56:09;;;;;;;5.20;1.83;;;;;;;10.22;53.81;102471.19;4996624;28;20034;-85
2023/03/28 10:58:50;;;;;;;4.82;1.88;;;;;;;10.42;52.91;102469.44;5001082;28;20030;-85
2023/03/28 11:01:49;;;;;;;7.53;2.63;;;;;;;10.66;54.44;102461.97;4990699;28;20505;-85
2023/03/28 11:04:51;;;;;;;7.18;1.70;;;;;;;10.66;54.17;102457.41;5006948;28;20032;-85
2023/03/28 11:07:38;;;;;;;7.22;3.22;;;;;;;10.72;53.32;102450.78;5007726;28;20928;-84
2023/03/28 11:10:13;;;;;;;6.35;1.77;;;;;;;10.85;53.28;102438.34;4979603;28;20570;-84
2023/03/28 11:13:21;;;;;;;9.65;2.35;;;;;;;10.77;49.94;102426.06;5007784;28;20057;-85
2023/03/28 11:16:14;;;;;;;8.98;2.25;;;;;;;10.80;52.02;102428.66;4991266;28;20029;-85
2023/03/28 11:19:27;;;;;;;4.32;1.98;;;;;;;11.00;48.82;102412.22;4950176;28;20066;-85
2023/03/28 11:22:08;;;;;;;5.70;2.03;;;;;;;11.02;49.06;102415.75;4968677;28;20170;-84
2023/03/28 11:24:48;;;;;;;8.32;2.13;;;;;;;10.94;51.25;102413.41;4987623;28;20390;-85
2023/03/28 11:27:30;;;;;;;4.53;1.90;;;;;;;11.03;50.42;102409.34;4971429;28;20041;-85
2023/03/28 11:30:25;;;;;;;8.15;2.50;;;;;;;10.98;49.07;102398.69;4988188;28;20495;-85
2023/03/28 11:33:18;;;;;;;8.18;3.38;;;;;;;10.90;49.44;102394.56;4973636;28;20534;-84
2023/03/28 11:35:51;;;;;;;5.20;2.15;;;;;;;11.10;52.22;102390.88;4988164;28;20042;-85
2023/03/28 11:38:32;;;;;;;5.82;2.38;;;;;;;11.36;49.43;102387.69;4989486;28;20714;-84
2023/03/28 11:41:11;;;;;;;13.18;2.85;;;;;;;11.52;48.87;102393.25;4970969;28;20040;-85
2023/03/28 11:43:59;;;;;;;8.48;2.70;;;;;;;11.57;45.99;102384.84;4974445;28;20070;-85
2023/03/28 11:46:44;;;;;;;5.40;2.55;;;;;;;11.74;49.40;102369.34;4974162;28;20038;-85
2023/03/28 11:49:21;;;;;;;6.55;2.20;;;;;;;12.19;50.75;102367.88;5006581;28;20033;-85
2023/03/28 11:52:19;;;;;;;7.28;2.60;;;;;;;12.34;47.39;102355.22;4990867;28;20133;-85
2023/03/28 11:55:09;;;;;;;5.70;2.20;;;;;;;12.51;47.80;102341.53;4988045;28;20053;-85
2023/03/28 11:58:00;;;;;;;8.65;2.53;;;;;;;12.65;47.57;102334.41;4987341;28;20069;-84
2023/03/28 12:00:31;;;;;;;11.00;2.90;;;;;;;12.41;46.50;102333.94;4952705;28;20525;-85
2023/03/28 12:03:24;;;;;;;6.78;2.40;;;;;;;12.31;46.14;102333.59;5000411;28;20557;-85
2023/03/28 12:06:28;;;;;;;5.05;2.10;;;;;;;12.10;46.83;102334.75;4968974;28;20042;-85
2023/03/28 12:09:03;;;;;;;4.82;1.88;;;;;;;11.76;45.38;102317.47;4937234;28;20056;-85